Time;durP1;ratioP1;P1;durP2;ratioP2;P2;SDS_P1;SDS_P2;PMS_P1;PMS_P2;Temp;Humidity;BMP_temperature;BMP_pressure;BME280_temperature;BME280_humidity;BME280_pressure;Samples;Min_cycle;Max_cycle;Signal;HPM_P1;HPM_P2
2022/05/11 00:00:15;;;;;;;5.50;3.50;;;;;;;23.44;39.15;101298.56;5018741;28;20725;-70
2022/05/11 00:02:41;;;;;;;6.18;3.05;;;;;;;23.40;39.18;101291.97;5020306;28;20120;-70
2022/05/11 00:05:10;;;;;;;5.43;3.50;;;;;;;23.34;39.35;101292.75;5016965;28;20575;-70
2022/05/11 00:07:36;;;;;;;4.30;3.25;;;;;;;23.36;39.31;101293.38;5020188;28;20199;-69
2022/05/11 00:10:03;;;;;;;7.82;3.60;;;;;;;23.36;39.12;101290.72;5017326;28;20130;-70
2022/05/11 00:12:28;;;;;;;5.28;3.47;;;;;;;23.30;39.51;101280.84;5023767;28;20064;-70
2022/05/11 00:14:54;;;;;;;4.65;3.50;;;;;;;23.29;39.35;101283.69;5013896;28;20084;-70
2022/05/11 00:17:19;;;;;;;5.00;3.35;;;;;;;23.27;39.51;101272.44;5018325;28;20096;-70
2022/05/11 00:19:45;;;;;;;4.57;3.13;;;;;;;23.30;39.63;101270.22;5016397;28;20491;-69
2022/05/11 00:22:11;;;;;;;7.13;3.50;;;;;;;23.28;39.41;101263.47;5020551;28;20100;-70
2022/05/11 00:24:36;;;;;;;5.05;3.33;;;;;;;23.30;39.45;101270.22;5017242;28;20117;-69
2022/05/11 00:27:02;;;;;;;5.45;3.30;;;;;;;23.28;39.58;101266.94;5019990;28;20040;-71
2022/05/11 00:29:30;;;;;;;4.40;2.95;;;;;;;23.27;39.33;101253.84;5017941;28;20090;-70
2022/05/11 00:31:56;;;;;;;4.57;3.38;;;;;;;23.28;39.20;101258.97;5022690;28;20053;-71
2022/05/11 00:34:22;;;;;;;6.13;3.67;;;;;;;23.27;39.30;101248.53;5017905;28;20596;-71
2022/05/11 00:36:48;;;;;;;3.05;2.75;;;;;;;23.26;39.62;101250.38;5020718;28;20124;-71
2022/05/11 00:39:13;;;;;;;5.97;3.40;;;;;;;23.20;39.62;101243.19;5016145;28;20025;-71
2022/05/11 00:41:41;;;;;;;4.35;3.42;;;;;;;23.18;39.81;101240.72;5021175;28;20045;-71
2022/05/11 00:44:09;;;;;;;4.80;3.22;;;;;;;23.18;39.77;101235.41;5013678;28;20041;-71
2022/05/11 00:46:56;;;;;;;7.35;3.40;;;;;;;23.15;39.87;101219.00;5017088;28;20598;-69
2022/05/11 00:49:38;;;;;;;5.55;3.20;;;;;;;23.16;39.58;101224.16;5021250;28;20711;-70
2022/05/11 00:52:22;;;;;;;6.80;3.13;;;;;;;23.12;39.72;101230.84;5015064;28;20026;-70
2022/05/11 00:55:04;;;;;;;5.07;3.03;;;;;;;23.10;39.43;101224.88;5015626;28;20167;-70
2022/05/11 00:57:36;;;;;;;5.32;3.35;;;;;;;23.16;39.49;101226.81;5019424;28;20124;-70
2022/05/11 01:00:08;;;;;;;6.20;3.42;;;;;;;23.14;39.78;101225.31;5021193;28;20633;-70
2022/05/11 01:02:34;;;;;;;6.05;3.50;;;;;;;23.14;39.79;101222.66;5013860;28;20448;-70
2022/05/11 01:05:04;;;;;;;4.10;3.08;;;;;;;23.14;39.91;101225.31;5018410;28;20044;-70
2022/05/11 01:07:31;;;;;;;4.20;3.22;;;;;;;23.08;39.79;101221.59;5015122;28;20123;-70
2022/05/11 01:09:57;;;;;;;5.43;3.53;;;;;;;23.14;39.70;101225.31;5017580;28;20052;-70
2022/05/11 01:12:29;;;;;;;5.35;3.08;;;;;;;23.14;39.63;101227.97;5016353;28;20038;-70
2022/05/11 01:15:00;;;;;;;4.30;3.20;;;;;;;23.12;39.77;101224.69;5017370;28;20037;-70
2022/05/11 01:17:27;;;;;;;4.13;3.10;;;;;;;23.10;39.93;101219.56;5019041;28;20041;-70
2022/05/11 01:19:53;;;;;;;4.70;3.50;;;;;;;23.09;39.67;101217.13;5018309;28;20041;-70
2022/05/11 01:22:35;;;;;;;5.72;3.40;;;;;;;23.12;39.51;101216.72;5017335;28;20048;-69
2022/05/11 01:25:04;;;;;;;5.88;3.40;;;;;;;23.09;39.79;101225.91;5017033;28;20037;-69
2022/05/11 01:27:41;;;;;;;4.10;3.05;;;;;;;23.09;39.66;101225.09;5020407;28;20037;-69
2022/05/11 01:30:14;;;;;;;5.47;3.47;;;;;;;23.06;39.80;101223.63;5016673;28;20041;-70
2022/05/11 01:32:43;;;;;;;6.22;3.63;;;;;;;23.10;39.79;101218.75;5016008;28;20260;-70
2022/05/11 01:35:24;;;;;;;6.00;3.10;;;;;;;23.07;39.86;101212.00;5022686;28;20100;-71
2022/05/11 01:38:32;;;;;;;5.47;3.47;;;;;;;23.03;39.96;101220.56;5012364;28;20380;-70
2022/05/11 01:40:58;;;;;;;6.35;3.40;;;;;;;23.07;39.87;101208.53;5017372;28;20119;-71
2022/05/11 01:43:28;;;;;;;5.20;3.35;;;;;;;23.04;40.04;101207.06;5022215;28;20041;-71
2022/05/11 01:45:54;;;;;;;4.80;3.00;;;;;;;23.02;40.01;101208.28;5018954;28;20120;-71
2022/05/11 01:48:20;;;;;;;5.97;3.28;;;;;;;22.97;40.00;101189.41;5015760;28;20059;-72
2022/05/11 01:50:46;;;;;;;4.43;2.95;;;;;;;22.96;39.83;101190.44;5017385;28;20316;-71
2022/05/11 01:53:13;;;;;;;4.68;2.90;;;;;;;23.02;39.80;101185.19;5018741;28;20052;-70
2022/05/11 01:55:39;;;;;;;4.72;3.22;;;;;;;22.97;40.04;101184.94;5020174;28;20045;-70
2022/05/11 01:58:07;;;;;;;5.40;3.10;;;;;;;22.98;39.72;101191.06;5018014;28;20030;-70
2022/05/11 02:00:34;;;;;;;6.43;3.63;;;;;;;23.02;39.79;101187.03;5014593;28;20041;-71
2022/05/11 02:02:59;;;;;;;4.95;3.00;;;;;;;22.98;40.07;101183.94;5015122;28;20076;-70
2022/05/11 02:08:09;;;;;;;4.28;3.17;;;;;;;22.92;40.10;101177.53;5016304;28;21829;-70
2022/05/11 02:10:35;;;;;;;4.45;3.03;;;;;;;23.00;39.63;101181.91;5015466;28;20024;-71
2022/05/11 02:13:01;;;;;;;4.72;3.33;;;;;;;23.00;39.85;101181.91;5017301;28;20427;-70
2022/05/11 02:15:27;;;;;;;4.68;3.53;;;;;;;22.95;40.01;101178.19;5017353;28;20038;-70
2022/05/11 02:17:53;;;;;;;6.82;3.08;;;;;;;22.97;39.87;101171.66;5017852;28;20073;-71
2022/05/11 02:20:20;;;;;;;3.28;2.85;;;;;;;22.97;39.72;101165.53;5014473;28;20089;-70
2022/05/11 02:22:46;;;;;;;5.32;2.92;;;;;;;22.94;39.91;101165.91;5016939;28;20049;-70
2022/05/11 02:25:13;;;;;;;4.30;3.17;;;;;;;22.91;39.92;101172.44;5018249;28;20365;-70
2022/05/11 02:27:39;;;;;;;4.13;3.30;;;;;;;22.92;39.92;101177.53;5016470;28;20132;-70
2022/05/11 02:30:08;;;;;;;5.70;3.55;;;;;;;22.91;39.86;101169.78;5017461;28;20675;-70
2022/05/11 02:32:34;;;;;;;4.47;3.03;;;;;;;22.89;39.67;101159.34;5016967;28;20038;-70
2022/05/11 02:35:16;;;;;;;6.22;2.95;;;;;;;22.95;40.09;101164.91;5012641;28;20475;-70
2022/05/11 02:38:04;;;;;;;3.90;2.90;;;;;;;22.92;39.89;101153.66;5014806;28;20037;-70
2022/05/11 02:40:32;;;;;;;4.20;3.10;;;;;;;22.88;39.71;101151.56;5019006;28;20550;-70
2022/05/11 02:43:01;;;;;;;4.38;2.72;;;;;;;22.90;40.01;101149.53;5017649;28;20145;-70
2022/05/11 02:45:27;;;;;;;4.40;2.90;;;;;;;22.86;40.28;101157.09;5015124;28;20096;-70
2022/05/11 02:47:54;;;;;;;5.32;3.28;;;;;;;22.88;40.22;101164.84;5015351;28;20140;-70
2022/05/11 02:50:24;;;;;;;4.78;2.88;;;;;;;22.90;39.88;101160.16;5016522;28;20687;-71
2022/05/11 02:52:50;;;;;;;;;;;;;;;22.96;39.69;101150.59;5016088;28;20033;-70
2022/05/11 02:55:16;;;;;;;6.20;3.75;;;;;;;22.89;39.84;101150.56;5015255;28;19925;-70
2022/05/11 02:57:41;;;;;;;3.90;2.80;;;;;;;22.85;39.93;101152.78;5015152;28;20049;-70
2022/05/11 03:00:09;;;;;;;4.10;2.80;;;;;;;22.88;40.10;101156.88;5017815;28;20132;-70
2022/05/11 03:02:36;;;;;;;5.75;2.97;;;;;;;22.88;39.84;101149.75;5016453;28;20049;-70
2022/05/11 03:05:03;;;;;;;4.35;2.60;;;;;;;22.87;39.75;101155.25;5016748;28;20045;-70
2022/05/11 03:07:28;;;;;;;4.53;3.00;;;;;;;22.88;39.77;101149.75;5012019;28;20042;-70
2022/05/11 03:09:54;;;;;;;6.05;3.35;;;;;;;22.86;40.22;101161.56;5019657;28;20040;-70
2022/05/11 03:12:22;;;;;;;4.43;2.92;;;;;;;22.87;40.08;101149.94;5013993;28;20033;-70
2022/05/11 03:14:54;;;;;;;4.78;3.03;;;;;;;22.82;39.82;101142.56;5035311;28;20037;-70
2022/05/11 03:17:21;;;;;;;5.60;2.95;;;;;;;22.78;40.17;101146.53;5015136;28;20069;-70
2022/05/11 03:19:46;;;;;;;5.03;3.10;;;;;;;22.85;39.93;101144.81;5012892;28;20084;-70
2022/05/11 03:22:12;;;;;;;3.35;2.65;;;;;;;22.78;40.29;101149.19;5017573;28;20065;-71
2022/05/11 03:24:38;;;;;;;4.22;2.60;;;;;;;;;;5033022;28;20072;-71
2022/05/11 03:27:04;;;;;;;4.57;2.83;;;;;;;22.80;40.24;101141.03;5012718;28;20160;-71
2022/05/11 03:29:30;;;;;;;4.85;3.20;;;;;;;22.84;39.87;101137.88;5015850;28;20615;-71
2022/05/11 03:34:41;;;;;;;4.15;3.13;;;;;;;22.79;40.15;101118.97;5016817;28;20103;-71
2022/05/11 03:37:18;;;;;;;4.32;2.40;;;;;;;22.83;40.22;101122.13;5008096;28;20041;-71
2022/05/11 03:39:44;;;;;;;6.60;2.60;;;;;;;22.79;40.25;101118.16;5013637;28;20109;-71
2022/05/11 03:42:17;;;;;;;4.70;2.85;;;;;;;;;;5017126;28;20120;-71
2022/05/11 03:44:43;;;;;;;3.92;2.80;;;;;;;22.76;40.07;101108.75;5017644;28;20507;-71
2022/05/11 03:47:09;;;;;;;4.95;2.80;;;;;;;22.76;39.99;101111.41;5014595;28;20029;-71
2022/05/11 03:49:34;;;;;;;4.90;3.03;;;;;;;22.72;40.40;101106.69;5014434;28;20042;-71
2022/05/11 03:52:01;;;;;;;3.78;2.92;;;;;;;22.72;40.36;101096.06;5019163;28;20050;-71
2022/05/11 03:54:27;;;;;;;8.00;2.88;;;;;;;22.73;40.39;101090.56;5017731;28;20041;-71
2022/05/11 03:56:52;;;;;;;4.07;2.75;;;;;;;22.77;40.06;101091.81;5013938;28;20025;-72
2022/05/11 03:59:18;;;;;;;5.95;2.70;;;;;;;22.73;40.23;101087.09;5017673;28;20041;-71
2022/05/11 04:01:44;;;;;;;4.10;3.10;;;;;;;22.61;40.28;101062.88;5014869;28;20084;-71
2022/05/11 04:04:09;;;;;;;4.35;2.75;;;;;;;22.71;40.52;101087.28;5015612;28;20380;-71
2022/05/11 04:06:35;;;;;;;4.35;2.97;;;;;;;22.71;40.27;101084.63;5016085;28;20049;-71
2022/05/11 04:09:00;;;;;;;5.03;2.90;;;;;;;22.66;40.13;101084.38;5015198;28;20102;-71
2022/05/11 04:11:28;;;;;;;4.22;2.63;;;;;;;22.67;40.28;101078.06;5018020;28;20618;-71
2022/05/11 04:13:55;;;;;;;6.97;3.03;;;;;;;22.75;40.33;101072.59;5017271;28;20037;-71
2022/05/11 04:16:20;;;;;;;7.43;3.40;;;;;;;22.73;40.20;101073.81;5016713;28;20041;-71
2022/05/11 04:18:46;;;;;;;4.60;2.70;;;;;;;22.73;40.04;101068.50;5013733;28;20053;-71
2022/05/11 04:21:12;;;;;;;4.32;2.70;;;;;;;22.70;40.12;101067.06;5016250;28;20593;-71
2022/05/11 04:23:41;;;;;;;3.72;2.40;;;;;;;22.73;40.44;101068.50;5014709;28;20038;-70
2022/05/11 04:26:08;;;;;;;3.58;2.40;;;;;;;22.76;40.04;101070.75;5016579;28;20079;-71
2022/05/11 04:28:35;;;;;;;3.13;2.80;;;;;;;22.74;40.32;101073.63;5013965;28;20077;-71
2022/05/11 04:31:06;;;;;;;5.47;3.05;;;;;;;22.75;40.35;101063.81;5013142;28;20492;-70
2022/05/11 04:33:33;;;;;;;4.47;2.55;;;;;;;22.72;39.88;101067.69;5012393;28;20035;-71
2022/05/11 04:35:59;;;;;;;3.47;2.40;;;;;;;22.72;40.29;101065.03;5015011;28;20038;-71
2022/05/11 04:38:24;;;;;;;3.35;2.47;;;;;;;22.74;40.20;101068.31;5014853;28;20142;-71
2022/05/11 04:40:50;;;;;;;5.47;2.85;;;;;;;22.69;40.19;101065.41;5018718;28;20099;-71
2022/05/11 04:43:16;;;;;;;5.63;2.92;;;;;;;22.72;40.01;101072.16;5020226;28;20098;-71
2022/05/11 04:45:44;;;;;;;4.05;2.90;;;;;;;22.70;39.97;101071.53;5016702;28;20044;-71
2022/05/11 04:48:11;;;;;;;6.63;2.92;;;;;;;22.73;40.18;101071.97;5016519;28;20108;-71
2022/05/11 04:50:38;;;;;;;4.35;2.92;;;;;;;22.70;40.02;101076.84;5013907;28;20034;-71
2022/05/11 04:53:05;;;;;;;4.40;2.80;;;;;;;22.63;40.07;101060.88;5020382;28;20068;-71
2022/05/11 04:55:30;;;;;;;4.95;2.72;;;;;;;22.70;40.34;101074.19;5018399;28;20450;-71
2022/05/11 04:57:56;;;;;;;4.10;2.60;;;;;;;22.70;39.96;101067.06;5014917;28;20041;-71
2022/05/11 05:00:25;;;;;;;5.57;2.50;;;;;;;22.71;40.17;101063.38;5016792;28;20116;-71
2022/05/11 05:02:51;;;;;;;4.55;2.92;;;;;;;22.69;39.97;101038.06;5013825;28;20494;-71
2022/05/11 05:05:18;;;;;;;4.75;2.60;;;;;;;22.69;40.13;101057.44;5020151;28;20454;-71
2022/05/11 05:07:44;;;;;;;5.68;2.88;;;;;;;22.73;39.96;101057.88;5014269;28;20303;-71
2022/05/11 05:10:12;;;;;;;4.82;2.90;;;;;;;22.68;39.98;101058.47;5021887;28;20042;-71
2022/05/11 05:12:39;;;;;;;4.82;2.75;;;;;;;22.73;40.26;101068.50;5020168;28;20030;-71
2022/05/11 05:15:06;;;;;;;4.00;2.28;;;;;;;22.75;39.93;101066.47;5014874;28;20041;-71
2022/05/11 05:17:32;;;;;;;3.35;2.50;;;;;;;22.74;39.86;101067.47;5016194;28;20048;-71
2022/05/11 05:19:58;;;;;;;3.83;2.75;;;;;;;22.71;40.35;101070.53;5017200;28;20037;-71
2022/05/11 05:22:23;;;;;;;3.92;2.33;;;;;;;22.63;40.04;101046.78;5017480;28;20753;-70
2022/05/11 05:24:50;;;;;;;4.65;2.40;;;;;;;22.74;40.22;101063.00;5020015;28;20033;-71
2022/05/11 05:27:18;;;;;;;4.95;3.00;;;;;;;22.71;40.22;101060.72;5015016;28;20042;-71
2022/05/11 05:32:35;;;;;;;6.28;2.92;;;;;;;22.73;40.01;101053.38;5016353;28;20030;-71
2022/05/11 05:35:02;;;;;;;4.88;2.78;;;;;;;22.69;40.13;101038.06;5017126;28;20037;-71
2022/05/11 05:37:28;;;;;;;4.75;2.80;;;;;;;22.77;39.85;101053.81;5018336;28;20033;-71
2022/05/11 05:39:53;;;;;;;5.53;2.63;;;;;;;22.77;39.86;101064.44;5013541;28;20029;-71
2022/05/11 05:42:22;;;;;;;5.35;2.60;;;;;;;22.70;40.27;101067.06;5016683;28;20896;-71
2022/05/11 05:44:48;;;;;;;4.45;2.65;;;;;;;22.72;40.07;101058.91;5022260;28;20443;-71
2022/05/11 05:47:15;;;;;;;6.53;3.00;;;;;;;22.71;39.92;101058.06;5016717;28;20056;-70
2022/05/11 05:49:42;;;;;;;3.58;2.53;;;;;;;22.75;39.91;101045.22;5016230;28;20810;-70
2022/05/11 05:52:15;;;;;;;5.80;2.67;;;;;;;22.74;40.16;101040.94;5011086;28;20771;-70
2022/05/11 05:54:41;;;;;;;6.57;2.88;;;;;;;22.75;40.09;101043.41;5021275;28;20091;-70
2022/05/11 05:57:06;;;;;;;5.32;2.42;;;;;;;22.82;40.02;101044.31;5014979;28;20041;-71
2022/05/11 05:59:32;;;;;;;3.30;2.58;;;;;;;22.74;39.99;101036.44;5017816;28;20099;-71
2022/05/11 06:01:58;;;;;;;3.88;2.65;;;;;;;22.78;40.27;101044.84;5011953;28;20399;-71
2022/05/11 06:04:23;;;;;;;6.25;2.60;;;;;;;22.75;40.21;101030.13;5017320;28;20047;-71
2022/05/11 06:06:49;;;;;;;6.00;2.63;;;;;;;22.80;40.06;101037.50;5015840;28;20116;-71
2022/05/11 06:09:15;;;;;;;4.55;2.47;;;;;;;22.75;40.09;101029.31;5021150;28;20480;-71
2022/05/11 06:11:42;;;;;;;5.43;2.90;;;;;;;22.78;40.01;101034.22;5015362;28;20041;-71
2022/05/11 06:14:08;;;;;;;7.88;3.00;;;;;;;22.77;40.04;101046.69;5021584;28;20031;-71
2022/05/11 06:16:33;;;;;;;5.40;2.90;;;;;;;22.78;40.18;101050.16;5012895;28;20857;-71
2022/05/11 06:18:59;;;;;;;4.72;2.85;;;;;;;22.80;40.20;101051.63;5014805;28;20037;-71
2022/05/11 06:21:26;;;;;;;7.93;2.80;;;;;;;22.79;40.28;101055.25;5018696;28;20167;-70
2022/05/11 06:23:52;;;;;;;3.50;2.28;;;;;;;22.77;40.32;101051.16;5012682;28;20045;-70
2022/05/11 06:26:18;;;;;;;5.07;2.70;;;;;;;22.84;40.21;101052.09;5017650;28;20041;-70
2022/05/11 06:28:46;;;;;;;4.72;2.80;;;;;;;22.80;39.90;101046.31;5015578;28;20454;-71
2022/05/11 06:31:13;;;;;;;7.15;2.90;;;;;;;22.78;39.99;101045.66;5016540;28;20426;-72
2022/05/11 06:33:40;;;;;;;4.32;2.67;;;;;;;22.76;40.23;101046.88;5016441;28;20790;-70
2022/05/11 06:36:08;;;;;;;4.70;2.47;;;;;;;22.78;40.22;101055.47;5018684;28;20037;-70
2022/05/11 06:38:34;;;;;;;3.47;2.30;;;;;;;22.78;40.04;101055.47;5015091;28;20633;-73
2022/05/11 06:41:12;;;;;;;3.00;2.45;;;;;;;22.82;40.31;101052.28;5018780;28;20033;-71
2022/05/11 06:43:38;;;;;;;5.25;2.55;;;;;;;22.84;40.30;101047.59;5017759;28;20061;-71
2022/05/11 06:46:04;;;;;;;3.72;2.47;;;;;;;22.89;39.77;101044.34;5017106;28;20578;-71
2022/05/11 06:48:30;;;;;;;4.57;2.38;;;;;;;22.92;39.99;101044.78;5016450;28;20029;-71
2022/05/11 06:50:56;;;;;;;6.40;2.72;;;;;;;22.91;40.03;101042.31;5017358;28;20758;-71
2022/05/11 06:53:21;;;;;;;5.20;3.08;;;;;;;22.92;40.17;101041.28;5012857;28;20041;-71
2022/05/11 07:01:18;;;;;;;4.25;3.00;;;;;;;22.89;40.25;101023.91;5017072;28;20116;-72
2022/05/11 07:03:44;;;;;;;3.80;2.42;;;;;;;22.92;39.84;101026.19;5015569;28;20132;-70
2022/05/11 07:06:10;;;;;;;4.35;2.80;;;;;;;22.90;39.99;101014.13;5013829;28;20124;-70
2022/05/11 07:08:38;;;;;;;3.63;2.67;;;;;;;22.91;40.12;101016.56;5014585;28;20040;-72
2022/05/11 07:13:49;;;;;;;5.95;2.92;;;;;;;22.87;40.09;101025.13;5015540;28;20045;-70
2022/05/11 07:16:16;;;;;;;4.45;2.63;;;;;;;22.90;39.91;101022.91;5011636;28;21470;-71
2022/05/11 07:18:42;;;;;;;5.00;2.80;;;;;;;22.89;40.30;101020.44;5012389;28;20050;-71
2022/05/11 07:21:08;;;;;;;3.38;2.70;;;;;;;22.94;39.90;101017.19;5016685;28;20408;-71
2022/05/11 07:23:34;;;;;;;5.10;3.03;;;;;;;22.91;39.85;101024.53;5014882;28;20136;-71
2022/05/11 07:26:00;;;;;;;4.97;2.72;;;;;;;22.96;39.84;101028.44;5013927;28;20111;-71
2022/05/11 07:28:26;;;;;;;5.30;2.63;;;;;;;22.97;40.14;101038.88;5016109;28;20068;-71
2022/05/11 07:30:52;;;;;;;4.40;2.60;;;;;;;23.02;40.01;101036.47;5018387;28;20064;-70
2022/05/11 07:33:18;;;;;;;4.20;2.38;;;;;;;23.01;39.75;101039.31;5014951;28;20045;-71
2022/05/11 07:35:45;;;;;;;6.03;2.97;;;;;;;22.98;40.03;101026.41;5014062;28;20587;-70
2022/05/11 07:38:13;;;;;;;3.17;2.33;;;;;;;23.03;39.52;101024.81;5014327;28;20128;-72
2022/05/11 07:40:39;;;;;;;6.93;2.90;;;;;;;23.05;39.67;101014.81;5016917;28;20480;-71
2022/05/11 07:43:06;;;;;;;4.95;2.70;;;;;;;23.07;39.65;101034.03;5012654;28;20057;-70
2022/05/11 07:45:32;;;;;;;6.28;2.88;;;;;;;23.09;39.74;101023.22;5018426;28;20033;-71
2022/05/11 07:47:58;;;;;;;8.68;2.65;;;;;;;22.98;39.75;101026.41;5013343;28;20561;-69
2022/05/11 07:50:24;;;;;;;3.38;2.35;;;;;;;23.03;39.90;101024.00;5014036;28;20041;-70
2022/05/11 07:52:50;;;;;;;5.88;3.15;;;;;;;23.05;39.97;101029.94;5016829;28;20443;-70
2022/05/11 07:55:17;;;;;;;5.18;3.00;;;;;;;23.08;39.74;101032.19;5013628;28;20084;-69
2022/05/11 08:00:28;;;;;;;6.20;2.60;;;;;;;23.10;39.49;101014.22;5017242;28;20049;-70
2022/05/11 08:02:54;;;;;;;6.68;2.92;;;;;;;23.02;39.70;101015.22;5015915;28;20045;-70
2022/05/11 08:05:20;;;;;;;4.55;3.03;;;;;;;23.12;39.54;101020.16;5013223;28;20091;-70
2022/05/11 08:07:52;;;;;;;5.18;2.55;;;;;;;23.09;39.75;101032.00;5013245;28;20504;-70
2022/05/11 08:10:42;;;;;;;5.68;2.42;;;;;;;23.09;39.28;101024.03;5014294;28;20144;-70
2022/05/11 08:13:08;;;;;;;4.57;2.90;;;;;;;23.10;39.23;101028.31;5016601;28;20047;-71
2022/05/11 08:15:38;;;;;;;5.57;2.65;;;;;;;23.13;39.43;101019.13;5017101;28;20519;-70
2022/05/11 08:18:06;;;;;;;3.85;2.47;;;;;;;23.13;39.15;101021.78;5018153;28;20042;-70
2022/05/11 08:20:35;;;;;;;4.93;2.70;;;;;;;23.14;39.36;101028.75;5016173;28;20498;-70
2022/05/11 08:23:02;;;;;;;5.47;2.55;;;;;;;23.12;39.49;101038.75;5018263;28;20128;-70
2022/05/11 08:25:30;;;;;;;5.07;2.60;;;;;;;23.11;39.20;101024.66;5029539;28;20099;-70
2022/05/11 08:27:56;;;;;;;4.60;2.45;;;;;;;23.12;39.42;101030.78;5000690;28;20030;-71
2022/05/11 08:33:22;;;;;;;4.30;2.83;;;;;;;23.10;39.07;101012.38;5018997;28;20037;-71
2022/05/11 08:35:56;;;;;;;6.85;2.67;;;;;;;23.12;39.04;101014.84;5013897;28;20037;-71
2022/05/11 08:38:25;;;;;;;6.22;2.83;;;;;;;23.09;39.37;101016.06;5018864;28;20041;-74
2022/05/11 08:41:11;;;;;;;6.45;2.92;;;;;;;23.06;39.22;101018.28;5017181;28;20434;-75
2022/05/11 08:43:37;;;;;;;11.93;2.85;;;;;;;22.97;39.07;101006.19;5014367;28;20049;-74
2022/05/11 08:46:08;;;;;;;11.80;3.10;;;;;;;23.00;39.32;101017.25;5016330;28;20096;-73
2022/05/11 08:48:45;;;;;;;10.25;3.22;;;;;;;22.92;39.18;101025.34;5021538;28;20033;-73
2022/05/11 08:51:25;;;;;;;7.40;3.05;;;;;;;22.91;39.42;101019.22;5013182;28;20120;-71
2022/05/11 08:54:06;;;;;;;6.95;2.45;;;;;;;23.01;39.78;101023.38;5016534;28;20042;-74
2022/05/11 08:56:33;;;;;;;9.88;2.88;;;;;;;23.08;39.49;101024.22;5018034;28;20044;-75
2022/05/11 08:59:00;;;;;;;8.90;3.58;;;;;;;23.05;39.34;101027.28;5017524;28;20042;-74
2022/05/11 09:01:45;;;;;;;6.85;2.55;;;;;;;23.06;39.16;101032.41;5017776;28;20693;-74
2022/05/11 09:04:14;;;;;;;9.77;2.70;;;;;;;23.05;39.02;101032.59;5015391;28;20040;-74
2022/05/11 09:06:43;;;;;;;9.65;3.10;;;;;;;23.08;39.08;101033.00;5018670;28;21607;-73
2022/05/11 09:09:10;;;;;;;10.93;3.05;;;;;;;23.17;39.05;101033.69;5015471;28;20041;-73
2022/05/11 09:11:48;;;;;;;7.97;2.65;;;;;;;23.26;39.41;101031.66;5017848;28;20033;-74
2022/05/11 09:14:19;;;;;;;11.63;2.90;;;;;;;23.16;39.48;101042.66;5013490;28;20525;-75
2022/05/11 09:16:49;;;;;;;9.48;3.00;;;;;;;23.28;38.80;101045.56;5016721;28;20054;-72
2022/05/11 09:19:23;;;;;;;9.30;2.85;;;;;;;23.35;38.66;101044.59;5014697;28;20135;-72
2022/05/11 09:21:53;;;;;;;10.13;2.72;;;;;;;23.44;40.65;101027.47;5019264;28;20384;-72
2022/05/11 09:24:21;;;;;;;6.13;2.75;;;;;;;23.55;40.18;101038.56;5021734;28;20045;-72
2022/05/11 09:27:04;;;;;;;9.30;2.95;;;;;;;23.56;39.02;101045.50;5010938;28;20524;-72
2022/05/11 09:29:37;;;;;;;8.70;3.10;;;;;;;23.63;39.96;101036.56;5014780;28;20543;-71
2022/05/11 09:32:32;;;;;;;8.45;3.15;;;;;;;23.54;39.20;101028.94;4973294;28;20096;-83
2022/05/11 09:35:36;;;;;;;7.30;3.22;;;;;;;23.64;38.91;101029.41;5018465;28;20045;-78
2022/05/11 09:38:12;;;;;;;12.07;2.67;;;;;;;23.76;38.92;101017.16;5007495;28;20029;-75
2022/05/11 09:41:10;;;;;;;6.80;2.63;;;;;;;23.94;38.63;101028.03;5038262;28;20041;-79
2022/05/11 09:43:43;;;;;;;5.82;1.90;;;;;;;24.10;38.45;101024.19;4989337;28;20114;-76
2022/05/11 09:46:20;;;;;;;13.25;3.00;;;;;;;24.23;37.97;101031.34;5022430;28;20129;-74
2022/05/11 09:49:07;;;;;;;9.63;3.17;;;;;;;24.29;38.05;101020.75;5002907;28;20514;-75
2022/05/11 09:51:46;;;;;;;8.65;2.60;;;;;;;24.35;38.25;101008.44;5021383;28;20507;-73
2022/05/11 09:54:40;;;;;;;7.07;2.58;;;;;;;24.31;38.30;101001.91;4990075;28;20443;-73
2022/05/11 09:57:08;;;;;;;9.13;2.90;;;;;;;24.47;37.88;101022.78;5008583;28;20029;-75
2022/05/11 09:59:40;;;;;;;7.55;2.33;;;;;;;24.58;37.76;101018.66;5002446;28;20038;-73
2022/05/11 10:02:34;;;;;;;6.47;2.25;;;;;;;24.38;37.88;101022.16;5014047;28;20507;-80
2022/05/11 10:05:14;;;;;;;11.43;3.17;;;;;;;24.62;37.47;101020.72;5005632;28;20029;-70
2022/05/11 10:07:49;;;;;;;6.22;2.63;;;;;;;24.59;37.35;101012.31;5017095;28;20037;-70
2022/05/11 10:10:29;;;;;;;7.28;2.50;;;;;;;24.64;37.25;101024.00;4987701;28;20041;-69
2022/05/11 10:12:57;;;;;;;;;;;;;;;24.60;37.39;101019.31;5020964;28;20037;-77
2022/05/11 10:23:59;;;;;;;6.18;2.30;;;;;;;24.86;36.91;101029.91;5012903;28;20041;-73
2022/05/11 10:26:35;;;;;;;11.18;3.20;;;;;;;24.65;37.08;101025.63;4988220;28;20091;-75
2022/05/11 10:29:16;;;;;;;7.65;2.78;;;;;;;24.69;36.74;101004.72;5020618;28;20048;-78
2022/05/11 10:32:12;;;;;;;9.80;2.80;;;;;;;24.82;36.77;101012.72;4987258;28;20029;-69
2022/05/11 10:35:11;;;;;;;9.18;2.47;;;;;;;25.08;36.37;101027.81;5016460;28;20598;-71
2022/05/11 10:37:54;;;;;;;5.70;2.00;;;;;;;25.11;36.33;101016.75;4996201;28;20059;-71
2022/05/11 10:40:31;;;;;;;6.35;2.40;;;;;;;25.04;36.43;101012.47;5018073;28;20037;-70
2022/05/11 10:43:34;;;;;;;5.63;2.30;;;;;;;25.03;36.34;100994.84;4981984;28;20049;-70
2022/05/11 10:46:40;;;;;;;5.30;2.50;;;;;;;24.82;36.42;100996.72;5015158;28;20722;-71
2022/05/11 10:49:18;;;;;;;5.05;2.20;;;;;;;24.96;36.38;101010.84;5002676;28;20042;-70
2022/05/11 10:51:52;;;;;;;6.15;2.20;;;;;;;24.90;36.56;101007.13;4988821;28;20079;-70
2022/05/11 10:54:33;;;;;;;6.63;2.60;;;;;;;24.99;36.37;101015.75;5009529;28;20046;-71
2022/05/11 10:57:07;;;;;;;9.32;3.15;;;;;;;24.91;36.56;101019.44;5016748;28;20037;-70
2022/05/11 11:00:00;;;;;;;3.70;2.03;;;;;;;24.86;36.52;101016.59;4985833;28;20034;-70
2022/05/11 11:02:44;;;;;;;5.75;2.30;;;;;;;24.81;36.67;101018.25;5010521;28;20049;-71
2022/05/11 11:05:37;;;;;;;8.23;2.83;;;;;;;24.70;36.81;101020.50;4981903;28;20129;-70
2022/05/11 11:08:30;;;;;;;8.02;3.30;;;;;;;24.62;36.92;101018.06;5010496;28;20476;-71
2022/05/11 11:11:06;;;;;;;5.78;2.30;;;;;;;24.55;37.03;101019.91;5002921;28;20399;-70
2022/05/11 11:13:43;;;;;;;5.53;2.33;;;;;;;24.57;37.14;101031.16;5012422;28;20043;-70
2022/05/11 11:16:12;;;;;;;5.45;2.30;;;;;;;24.51;37.03;101023.19;4982461;28;20031;-70
2022/05/11 11:18:44;;;;;;;4.40;2.33;;;;;;;24.41;37.02;101020.94;5018428;28;20049;-69
2022/05/11 11:21:11;;;;;;;4.80;2.20;;;;;;;24.47;37.20;101016.66;4989275;28;20099;-70
2022/05/11 11:23:40;;;;;;;6.18;2.45;;;;;;;24.35;37.53;101014.59;5013843;28;20037;-70
2022/05/11 11:26:11;;;;;;;5.63;2.67;;;;;;;24.47;37.28;101006.00;4978697;28;20932;-70
2022/05/11 11:28:40;;;;;;;7.05;2.20;;;;;;;24.46;37.29;101010.50;5017591;28;20029;-72
2022/05/11 11:31:14;;;;;;;5.57;2.47;;;;;;;24.46;37.33;101001.69;5012460;28;20042;-71
2022/05/11 11:34:02;;;;;;;7.68;2.47;;;;;;;24.41;37.33;101002.28;5000383;28;20050;-69
2022/05/11 11:36:31;;;;;;;6.40;2.28;;;;;;;24.42;37.12;101003.97;4993325;28;21131;-71
2022/05/11 11:39:01;;;;;;;5.30;2.55;;;;;;;24.43;37.26;100997.63;5012891;28;20072;-71
2022/05/11 11:41:51;;;;;;;5.05;1.98;;;;;;;24.37;37.23;100993.09;4989763;28;20088;-71
2022/05/11 11:44:20;;;;;;;3.08;1.88;;;;;;;24.39;37.11;100985.72;4985430;28;20060;-71
2022/05/11 11:46:46;;;;;;;6.38;2.17;;;;;;;24.35;37.30;100985.31;5013792;28;20579;-70
2022/05/11 11:49:18;;;;;;;3.35;1.63;;;;;;;24.37;37.33;100988.59;4987244;28;20052;-70
2022/05/11 11:52:05;;;;;;;7.95;2.35;;;;;;;24.35;37.11;100990.63;5013711;28;20203;-72
2022/05/11 11:54:37;;;;;;;4.07;2.10;;;;;;;24.34;37.49;100988.19;5001487;28;20183;-71
2022/05/11 11:57:22;;;;;;;5.57;1.63;;;;;;;24.30;37.49;100976.31;4999378;28;20095;-72
2022/05/11 11:59:50;;;;;;;5.32;2.30;;;;;;;24.33;37.26;100995.34;4993632;28;20060;-70
2022/05/11 12:02:36;;;;;;;6.55;2.63;;;;;;;24.32;37.26;100990.25;5024060;28;20037;-71
2022/05/11 12:05:24;;;;;;;6.00;1.95;;;;;;;24.32;37.27;100991.06;4994223;28;20033;-70
2022/05/11 12:16:42;;;;;;;4.25;2.15;;;;;;;24.31;37.17;100980.63;5009804;28;20507;-70
2022/05/11 12:19:11;;;;;;;3.90;2.20;;;;;;;24.28;37.35;100981.81;5004924;28;20056;-69
2022/05/11 12:21:39;;;;;;;4.47;1.70;;;;;;;24.33;37.26;100975.91;4986562;28;20365;-69